This is the latest recevied weather packets stored in our database for station/object Sauldorf. If no packets are shown the sender has not sent any weather packets the latest 10 day(s).
| Time | Temp. | Humidity | Pressure | Rain* | Wind** | Luminosity | Snow |
|---|---|---|---|---|---|---|---|
| 1777966330 | 13.89° C | 75% | 1007.8 hPa | 0 mm | - | - | - |
| 1777964532 | 12.78° C | 77% | 1008 hPa | 0 mm | - | - | - |
| 1777962731 | 12.22° C | 81% | 1008.2 hPa | 0 mm | - | - | - |
| 1777960932 | 11.11° C | 85% | 1008.2 hPa | 0 mm | - | - | - |
| 1777959131 | 8.33° C | 90% | 1008.3 hPa | 0 mm | - | - | - |
| 1777957331 | 7.78° C | 87% | 1008.3 hPa | 0 mm | - | - | - |
| 1777955531 | 7.78° C | 86% | 1008.4 hPa | 0 mm | - | - | - |
| 1777953731 | 8.33° C | 86% | 1008.6 hPa | 0 mm | - | - | - |
| 1777951931 | 8.89° C | 85% | 1008.6 hPa | 0 mm | - | - | - |
| 1777950134 | 8.89° C | 83% | 1008.7 hPa | 0 mm | - | - | - |
| 1777948331 | 9.44° C | 83% | 1008.9 hPa | 0 mm | - | - | - |
| 1777946531 | 10° C | 82% | 1009.1 hPa | 0 mm | - | - | - |
| 1777944731 | 10° C | 81% | 1009.4 hPa | 0 mm | - | - | - |
| 1777942931 | 10.56° C | 81% | 1009.7 hPa | 0 mm | - | - | - |
| 1777941129 | 11.11° C | 80% | 1010.2 hPa | 0 mm | - | - | - |
| 1777939330 | 11.67° C | 79% | 1010.4 hPa | 0 mm | - | - | - |
| 1777937529 | 11.67° C | 77% | 1010.6 hPa | 0 mm | - | - | - |
| 1777935730 | 12.22° C | 76% | 1010.8 hPa | 0 mm | - | - | - |
| 1777933935 | 12.78° C | 76% | 1011.2 hPa | 0 mm | - | - | - |
| 1777930329 | 13.33° C | 71% | 1011.1 hPa | 0 mm | - | - | - |
| 1777928529 | 13.89° C | 69% | 1011 hPa | 0 mm | - | - | - |
| 1777926729 | 14.44° C | 67% | 1011.1 hPa | 0 mm | - | - | - |
| 1777924929 | 15° C | 65% | 1011 hPa | 0 mm | - | - | - |
| 1777923129 | 15.56° C | 63% | 1010.8 hPa | 0 mm | - | - | - |
| 1777921329 | 15.56° C | 61% | 1010.8 hPa | 0 mm | - | - | - |
* Rain since midnight (hover to see other rain measurements)
** Current wind speed in m/s (hover to see current wind gust speed)